Aviation Digital Data Service (ADDS)

Output produced by METARs form (2221 UTC 16 February 2019)
found at http://www.aviationweather.gov/metar/data/
 
METAR text: USSS 162200Z 17002MPS 9000 -SN SCT038 M09/M10 Q0998 R26R/490337 NOSIG RMK QFE728/0971
Conditions at: USSS (EKATERINBURG , RU) observed 2200 UTC 16 February 2019
Temperature: -9.0°C (16°F)
Dewpoint: -10.0°C (14°F) [RH = 92%]
Pressure (altimeter): 29.47 inches Hg (998.0 mb)
Winds: from the S (170 degrees) at 5 MPH (4 knots; 2.1 m/s)
Visibility: 6 miles ( 9 km)
Ceiling: at least 12,000 feet AGL
Clouds: scattered clouds at 3800 feet AGL
Weather: -SN  (light snow)

METAR text: USSS 162130Z 20001MPS 8000 -SN SCT015 BKN036 M09/M10 Q0998 R26R/490337 NOSIG RMK QFE728/0971
Conditions at: USSS (EKATERINBURG , RU) observed 2130 UTC 16 February 2019
Temperature: -9.0°C (16°F)
Dewpoint: -10.0°C (14°F) [RH = 92%]
Pressure (altimeter): 29.47 inches Hg (998.0 mb)
Winds: from the SSW (200 degrees) at 2 MPH (2 knots; 1.0 m/s)
Visibility: 5 miles ( 8 km)
Ceiling: 3600 feet AGL
Clouds: scattered clouds at 1500 feet AGL
broken clouds at 3600 feet AGL
Weather: -SN  (light snow)

METAR text: USSS 162100Z 21001MPS 9000 -SN SCT015 BKN032 M09/M10 Q0998 R26R/490337 NOSIG RMK QFE728/0971
Conditions at: USSS (EKATERINBURG , RU) observed 2100 UTC 16 February 2019
Temperature: -9.0°C (16°F)
Dewpoint: -10.0°C (14°F) [RH = 92%]
Pressure (altimeter): 29.47 inches Hg (998.0 mb)
Winds: from the SSW (210 degrees) at 2 MPH (2 knots; 1.0 m/s)
Visibility: 6 miles ( 9 km)
Ceiling: 3200 feet AGL
Clouds: scattered clouds at 1500 feet AGL
broken clouds at 3200 feet AGL
Weather: -SN  (light snow)

METAR text: USSS 162030Z 21002MPS 8000 -SN SCT033 M08/M09 Q0998 R26R/490337 NOSIG RMK QFE728/0971
Conditions at: USSS (EKATERINBURG , RU) observed 2030 UTC 16 February 2019
Temperature: -8.0°C (18°F)
Dewpoint: -9.0°C (16°F) [RH = 92%]
Pressure (altimeter): 29.47 inches Hg (998.0 mb)
Winds: from the SSW (210 degrees) at 5 MPH (4 knots; 2.1 m/s)
Visibility: 5 miles ( 8 km)
Ceiling: at least 12,000 feet AGL
Clouds: scattered clouds at 3300 feet AGL
Weather: -SN  (light snow)

METAR text: USSS 162000Z 20001MPS 6000 -SN SCT033 M09/M09 Q0998 R26R/490337 NOSIG RMK QFE728/0971
Conditions at: USSS (EKATERINBURG , RU) observed 2000 UTC 16 February 2019
Temperature: -9.0°C (16°F)
Dewpoint: -9.0°C (16°F) [RH = 100%]
Pressure (altimeter): 29.47 inches Hg (998.0 mb)
Winds: from the SSW (200 degrees) at 2 MPH (2 knots; 1.0 m/s)
Visibility: 4 miles ( 6 km)
Ceiling: at least 12,000 feet AGL
Clouds: scattered clouds at 3300 feet AGL
Weather: -SN  (light snow)

METAR text: USSS 161930Z 20002MPS 3700 -SN SCT031 M08/M08 Q0998 R26R/490337 NOSIG RMK QFE728/0971
Conditions at: USSS (EKATERINBURG , RU) observed 1930 UTC 16 February 2019
Temperature: -8.0°C (18°F)
Dewpoint: -8.0°C (18°F) [RH = 100%]
Pressure (altimeter): 29.47 inches Hg (998.0 mb)
Winds: from the SSW (200 degrees) at 5 MPH (4 knots; 2.1 m/s)
Visibility: 2.30 miles (3.70 km)
Ceiling: at least 12,000 feet AGL
Clouds: scattered clouds at 3100 feet AGL
Weather: -SN  (light snow)

METAR text: USSS 161900Z 19002MPS 2600 -SN SCT037 M08/M08 Q0998 R26R/490337 NOSIG RMK QFE728/0971
Conditions at: USSS (EKATERINBURG , RU) observed 1900 UTC 16 February 2019
Temperature: -8.0°C (18°F)
Dewpoint: -8.0°C (18°F) [RH = 100%]
Pressure (altimeter): 29.47 inches Hg (998.0 mb)
Winds: from the S (190 degrees) at 5 MPH (4 knots; 2.1 m/s)
Visibility: 1.62 miles (2.61 km)
Ceiling: at least 12,000 feet AGL
Clouds: scattered clouds at 3700 feet AGL
Weather: -SN  (light snow)

METAR text: USSS 161830Z 19001MPS 3900 -SN SCT036 M08/M08 Q0998 R26R/490337 NOSIG RMK QFE728/0971
Conditions at: USSS (EKATERINBURG , RU) observed 1830 UTC 16 February 2019
Temperature: -8.0°C (18°F)
Dewpoint: -8.0°C (18°F) [RH = 100%]
Pressure (altimeter): 29.47 inches Hg (998.0 mb)
Winds: from the S (190 degrees) at 2 MPH (2 knots; 1.0 m/s)
Visibility: 2.42 miles (3.89 km)
Ceiling: at least 12,000 feet AGL
Clouds: scattered clouds at 3600 feet AGL
Weather: -SN  (light snow)

METAR text: USSS 161800Z 15001MPS 5000 -SN SCT032 M09/M10 Q0998 R26R/490337 NOSIG RMK QFE728/0971
Conditions at: USSS (EKATERINBURG , RU) observed 1800 UTC 16 February 2019
Temperature: -9.0°C (16°F)
Dewpoint: -10.0°C (14°F) [RH = 92%]
Pressure (altimeter): 29.47 inches Hg (998.0 mb)
Winds: from the SSE (150 degrees) at 2 MPH (2 knots; 1.0 m/s)
Visibility: 3 miles ( 5 km)
Ceiling: at least 12,000 feet AGL
Clouds: scattered clouds at 3200 feet AGL
Weather: -SN  (light snow)

METAR text: USSS 161730Z 20002MPS 8000 -SN SCT030 M08/M08 Q0998 R26R/490337 NOSIG RMK QFE728/0971
Conditions at: USSS (EKATERINBURG , RU) observed 1730 UTC 16 February 2019
Temperature: -8.0°C (18°F)
Dewpoint: -8.0°C (18°F) [RH = 100%]
Pressure (altimeter): 29.47 inches Hg (998.0 mb)
Winds: from the SSW (200 degrees) at 5 MPH (4 knots; 2.1 m/s)
Visibility: 5 miles ( 8 km)
Ceiling: at least 12,000 feet AGL
Clouds: scattered clouds at 3000 feet AGL
Weather: -SN  (light snow)

METAR text: USSS 161700Z 21002MPS 6000 -SN SCT030 M07/M08 Q0998 R26R/490337 NOSIG RMK QFE728/0971
Conditions at: USSS (EKATERINBURG , RU) observed 1700 UTC 16 February 2019
Temperature: -7.0°C (19°F)
Dewpoint: -8.0°C (18°F) [RH = 93%]
Pressure (altimeter): 29.47 inches Hg (998.0 mb)
Winds: from the SSW (210 degrees) at 5 MPH (4 knots; 2.1 m/s)
Visibility: 4 miles ( 6 km)
Ceiling: at least 12,000 feet AGL
Clouds: scattered clouds at 3000 feet AGL
Weather: -SN  (light snow)

METAR text: USSS 161630Z 19002MPS 8000 -SN SCT033 M07/M08 Q0998 R26R/490337 NOSIG RMK QFE728/0971
Conditions at: USSS (EKATERINBURG , RU) observed 1630 UTC 16 February 2019
Temperature: -7.0°C (19°F)
Dewpoint: -8.0°C (18°F) [RH = 93%]
Pressure (altimeter): 29.47 inches Hg (998.0 mb)
Winds: from the S (190 degrees) at 5 MPH (4 knots; 2.1 m/s)
Visibility: 5 miles ( 8 km)
Ceiling: at least 12,000 feet AGL
Clouds: scattered clouds at 3300 feet AGL
Weather: -SN  (light snow)

METAR text: USSS 161600Z 16001MPS 6000 -SN SCT033 M08/M08 Q0998 R26R/490337 NOSIG RMK QFE728/0971
Conditions at: USSS (EKATERINBURG , RU) observed 1600 UTC 16 February 2019
Temperature: -8.0°C (18°F)
Dewpoint: -8.0°C (18°F) [RH = 100%]
Pressure (altimeter): 29.47 inches Hg (998.0 mb)
Winds: from the SSE (160 degrees) at 2 MPH (2 knots; 1.0 m/s)
Visibility: 4 miles ( 6 km)
Ceiling: at least 12,000 feet AGL
Clouds: scattered clouds at 3300 feet AGL
Weather: -SN  (light snow)

METAR text: USSS 161530Z 00000MPS 6000 -SN SCT030 M07/M08 Q0998 R26R/490337 NOSIG RMK QFE728/0971
Conditions at: USSS (EKATERINBURG , RU) observed 1530 UTC 16 February 2019
Temperature: -7.0°C (19°F)
Dewpoint: -8.0°C (18°F) [RH = 93%]
Pressure (altimeter): 29.47 inches Hg (998.0 mb)
Winds: calm
Visibility: 4 miles ( 6 km)
Ceiling: at least 12,000 feet AGL
Clouds: scattered clouds at 3000 feet AGL
Weather: -SN  (light snow)

METAR text: USSS 161500Z 00000MPS 6000 -SN SCT040 M07/M08 Q0998 R26R/490337 NOSIG RMK QFE728/0971
Conditions at: USSS (EKATERINBURG , RU) observed 1500 UTC 16 February 2019
Temperature: -7.0°C (19°F)
Dewpoint: -8.0°C (18°F) [RH = 93%]
Pressure (altimeter): 29.47 inches Hg (998.0 mb)
Winds: calm
Visibility: 4 miles ( 6 km)
Ceiling: at least 12,000 feet AGL
Clouds: scattered clouds at 4000 feet AGL
Weather: -SN  (light snow)

METAR text: USSS 161430Z 19002MPS 4500 -SN SCT047 M07/M08 Q0998 R26R/490337 NOSIG RMK QFE728/0971
Conditions at: USSS (EKATERINBURG , RU) observed 1430 UTC 16 February 2019
Temperature: -7.0°C (19°F)
Dewpoint: -8.0°C (18°F) [RH = 93%]
Pressure (altimeter): 29.47 inches Hg (998.0 mb)
Winds: from the S (190 degrees) at 5 MPH (4 knots; 2.1 m/s)
Visibility: 2.80 miles (4.51 km)
Ceiling: at least 12,000 feet AGL
Clouds: scattered clouds at 4700 feet AGL
Weather: -SN  (light snow)

METAR text: USSS 161400Z 22002MPS 9000 -SN SCT046 M07/M09 Q0998 R26R/490337 NOSIG RMK QFE728/0971
Conditions at: USSS (EKATERINBURG , RU) observed 1400 UTC 16 February 2019
Temperature: -7.0°C (19°F)
Dewpoint: -9.0°C (16°F) [RH = 86%]
Pressure (altimeter): 29.47 inches Hg (998.0 mb)
Winds: from the SW (220 degrees) at 5 MPH (4 knots; 2.1 m/s)
Visibility: 6 miles ( 9 km)
Ceiling: at least 12,000 feet AGL
Clouds: scattered clouds at 4600 feet AGL
Weather: -SN  (light snow)

METAR text: USSS 161330Z 19002MPS 5000 -SN SCT046 M06/M09 Q0998 R26R/490337 NOSIG RMK QFE728/0971
Conditions at: USSS (EKATERINBURG , RU) observed 1330 UTC 16 February 2019
Temperature: -6.0°C (21°F)
Dewpoint: -9.0°C (16°F) [RH = 79%]
Pressure (altimeter): 29.47 inches Hg (998.0 mb)
Winds: from the S (190 degrees) at 5 MPH (4 knots; 2.1 m/s)
Visibility: 3 miles ( 5 km)
Ceiling: at least 12,000 feet AGL
Clouds: scattered clouds at 4600 feet AGL
Weather: -SN  (light snow)

METAR text: USSS 161300Z 20002MPS 9999 SCT046 M06/M09 Q0998 R26R/490337 TEMPO 0600 +SHSN VV004 RMK QFE728/0971
Conditions at: USSS (EKATERINBURG , RU) observed 1300 UTC 16 February 2019
Temperature: -6.0°C (21°F)
Dewpoint: -9.0°C (16°F) [RH = 79%]
Pressure (altimeter): 29.47 inches Hg (998.0 mb)
Winds: from the SSW (200 degrees) at 5 MPH (4 knots; 2.1 m/s)
Visibility: 6 or more miles (10+ km)
Ceiling: at least 12,000 feet AGL
Clouds: scattered clouds at 4600 feet AGL
Weather: no significant weather observed at this time

METAR text: USSS 161230Z 18002MPS 9999 BKN036 M06/M09 Q0998 R26R/490337 TEMPO 0600 +SHSN VV004 RMK QFE728/0971
Conditions at: USSS (EKATERINBURG , RU) observed 1230 UTC 16 February 2019
Temperature: -6.0°C (21°F)
Dewpoint: -9.0°C (16°F) [RH = 79%]
Pressure (altimeter): 29.47 inches Hg (998.0 mb)
Winds: from the S (180 degrees) at 5 MPH (4 knots; 2.1 m/s)
Visibility: 6 or more miles (10+ km)
Ceiling: 3600 feet AGL
Clouds: broken clouds at 3600 feet AGL
Weather: no significant weather observed at this time

METAR text: USSS 161200Z 17002MPS 9999 -SHSN BKN036CB M05/M08 Q0998 R26R/490337 TEMPO 0600 +SHSN VV004 RMK QFE728/0971
Conditions at: USSS (EKATERINBURG , RU) observed 1200 UTC 16 February 2019
Temperature: -5.0°C (23°F)
Dewpoint: -8.0°C (18°F) [RH = 79%]
Pressure (altimeter): 29.47 inches Hg (998.0 mb)
Winds: from the S (170 degrees) at 5 MPH (4 knots; 2.1 m/s)
Visibility: 6 or more miles (10+ km)
Ceiling: 3600 feet AGL
Clouds: broken clouds at 3600 feet AGL
Weather: -SHSN  (light snow showers)

METAR text: USSS 161130Z 16003MPS 9999 -SHSN BKN050CB M05/M08 Q0998 R26R/490337 TEMPO 0600 +SHSN VV004 RMK QFE728/0971
Conditions at: USSS (EKATERINBURG , RU) observed 1130 UTC 16 February 2019
Temperature: -5.0°C (23°F)
Dewpoint: -8.0°C (18°F) [RH = 79%]
Pressure (altimeter): 29.47 inches Hg (998.0 mb)
Winds: from the SSE (160 degrees) at 7 MPH (6 knots; 3.1 m/s)
Visibility: 6 or more miles (10+ km)
Ceiling: 5000 feet AGL
Clouds: broken clouds at 5000 feet AGL
Weather: -SHSN  (light snow showers)

METAR text: USSS 161100Z 19002MPS 150V220 6000 -SHSN BKN036CB M05/M08 Q0998 RESHSN R26R/490337 TEMPO 0600 +SHSN VV004 RMK QFE728/0971
Conditions at: USSS (EKATERINBURG , RU) observed 1100 UTC 16 February 2019
Temperature: -5.0°C (23°F)
Dewpoint: -8.0°C (18°F) [RH = 79%]
Pressure (altimeter): 29.47 inches Hg (998.0 mb)
Winds: from the S (190 degrees) at 5 MPH (4 knots; 2.1 m/s)
Visibility: 4 miles ( 6 km)
Ceiling: 3600 feet AGL
Clouds: broken clouds at 3600 feet AGL
Weather: -SHSN  (light snow showers)

METAR text: USSS 161030Z 18003MPS 8000 -SHSN BKN030CB M05/M09 Q0998 R26R/490337 NOSIG RMK QFE728/0971
Conditions at: USSS (EKATERINBURG , RU) observed 1030 UTC 16 February 2019
Temperature: -5.0°C (23°F)
Dewpoint: -9.0°C (16°F) [RH = 73%]
Pressure (altimeter): 29.47 inches Hg (998.0 mb)
Winds: from the S (180 degrees) at 7 MPH (6 knots; 3.1 m/s)
Visibility: 5 miles ( 8 km)
Ceiling: 3000 feet AGL
Clouds: broken clouds at 3000 feet AGL
Weather: -SHSN  (light snow showers)

METAR text: USSS 161000Z 17003MPS 9000 -SHSN BKN030CB M05/M09 Q0998 R26R/490337 TEMPO 0900 +SHSN VV004 RMK QFE728/0971
Conditions at: USSS (EKATERINBURG , RU) observed 1000 UTC 16 February 2019
Temperature: -5.0°C (23°F)
Dewpoint: -9.0°C (16°F) [RH = 73%]
Pressure (altimeter): 29.47 inches Hg (998.0 mb)
Winds: from the S (170 degrees) at 7 MPH (6 knots; 3.1 m/s)
Visibility: 6 miles ( 9 km)
Ceiling: 3000 feet AGL
Clouds: broken clouds at 3000 feet AGL
Weather: -SHSN  (light snow showers)

METAR text: USSS 160930Z 21003MPS 8000 -SHSN SCT033CB M05/M09 Q0998 R26R/490337 TEMPO 0900 +SHSN VV004 RMK QFE728/0971
Conditions at: USSS (EKATERINBURG , RU) observed 0930 UTC 16 February 2019
Temperature: -5.0°C (23°F)
Dewpoint: -9.0°C (16°F) [RH = 73%]
Pressure (altimeter): 29.47 inches Hg (998.0 mb)
Winds: from the SSW (210 degrees) at 7 MPH (6 knots; 3.1 m/s)
Visibility: 5 miles ( 8 km)
Ceiling: at least 12,000 feet AGL
Clouds: scattered clouds at 3300 feet AGL
Weather: -SHSN  (light snow showers)

METAR text: USSS 160900Z 19003MPS 9999 SCT043 M05/M10 Q0998 R26R/490337 NOSIG RMK QFE728/0971
Conditions at: USSS (EKATERINBURG , RU) observed 0900 UTC 16 February 2019
Temperature: -5.0°C (23°F)
Dewpoint: -10.0°C (14°F) [RH = 68%]
Pressure (altimeter): 29.47 inches Hg (998.0 mb)
Winds: from the S (190 degrees) at 7 MPH (6 knots; 3.1 m/s)
Visibility: 6 or more miles (10+ km)
Ceiling: at least 12,000 feet AGL
Clouds: scattered clouds at 4300 feet AGL
Weather: no significant weather observed at this time

METAR text: USSS 160830Z 20004MPS 9999 SCT040 M05/M11 Q0998 R26R/490337 NOSIG RMK QFE728/0971
Conditions at: USSS (EKATERINBURG , RU) observed 0830 UTC 16 February 2019
Temperature: -5.0°C (23°F)
Dewpoint: -11.0°C (12°F) [RH = 63%]
Pressure (altimeter): 29.47 inches Hg (998.0 mb)
Winds: from the SSW (200 degrees) at 9 MPH (8 knots; 4.1 m/s)
Visibility: 6 or more miles (10+ km)
Ceiling: at least 12,000 feet AGL
Clouds: scattered clouds at 4000 feet AGL
Weather: no significant weather observed at this time

METAR text: USSS 160800Z 18003MPS CAVOK M05/M09 Q0998 R26R/490337 NOSIG RMK QFE728/0971
Conditions at: USSS (EKATERINBURG , RU) observed 0800 UTC 16 February 2019
Temperature: -5.0°C (23°F)
Dewpoint: -9.0°C (16°F) [RH = 73%]
Pressure (altimeter): 29.47 inches Hg (998.0 mb)
Winds: from the S (180 degrees) at 7 MPH (6 knots; 3.1 m/s)
Visibility: 6 or more miles (10+ km)
Ceiling: ceiling and visibility are OK
Clouds: unknown
Weather: no significant weather observed at this time

METAR text: USSS 160730Z 17004MPS CAVOK M06/M09 Q0998 R26R/490337 NOSIG RMK QFE728/0971
Conditions at: USSS (EKATERINBURG , RU) observed 0730 UTC 16 February 2019
Temperature: -6.0°C (21°F)
Dewpoint: -9.0°C (16°F) [RH = 79%]
Pressure (altimeter): 29.47 inches Hg (998.0 mb)
Winds: from the S (170 degrees) at 9 MPH (8 knots; 4.1 m/s)
Visibility: 6 or more miles (10+ km)
Ceiling: ceiling and visibility are OK
Clouds: unknown
Weather: no significant weather observed at this time

METAR text: USSS 160700Z 17003MPS 9999 SCT044 M07/M10 Q0998 R26R/490337 NOSIG RMK QFE728/0971
Conditions at: USSS (EKATERINBURG , RU) observed 0700 UTC 16 February 2019
Temperature: -7.0°C (19°F)
Dewpoint: -10.0°C (14°F) [RH = 79%]
Pressure (altimeter): 29.47 inches Hg (998.0 mb)
Winds: from the S (170 degrees) at 7 MPH (6 knots; 3.1 m/s)
Visibility: 6 or more miles (10+ km)
Ceiling: at least 12,000 feet AGL
Clouds: scattered clouds at 4400 feet AGL
Weather: no significant weather observed at this time

METAR text: USSS 160630Z 17003MPS 9999 SCT046 M07/M10 Q0999 R26R/490337 NOSIG RMK QFE728/0971
Conditions at: USSS (EKATERINBURG , RU) observed 0630 UTC 16 February 2019
Temperature: -7.0°C (19°F)
Dewpoint: -10.0°C (14°F) [RH = 79%]
Pressure (altimeter): 29.50 inches Hg (999.0 mb)
Winds: from the S (170 degrees) at 7 MPH (6 knots; 3.1 m/s)
Visibility: 6 or more miles (10+ km)
Ceiling: at least 12,000 feet AGL
Clouds: scattered clouds at 4600 feet AGL
Weather: no significant weather observed at this time

METAR text: USSS 160600Z 16003MPS 9999 -SN SCT046 M07/M10 Q0999 R26R/490337 NOSIG RMK QFE729/0972
Conditions at: USSS (EKATERINBURG , RU) observed 0600 UTC 16 February 2019
Temperature: -7.0°C (19°F)
Dewpoint: -10.0°C (14°F) [RH = 79%]
Pressure (altimeter): 29.50 inches Hg (999.0 mb)
Winds: from the SSE (160 degrees) at 7 MPH (6 knots; 3.1 m/s)
Visibility: 6 or more miles (10+ km)
Ceiling: at least 12,000 feet AGL
Clouds: scattered clouds at 4600 feet AGL
Weather: -SN  (light snow)

METAR text: USSS 160530Z 16004MPS 120V180 9999 -SN SCT039 M08/M10 Q0999 R26R/490337 NOSIG RMK QFE729/0972
Conditions at: USSS (EKATERINBURG , RU) observed 0530 UTC 16 February 2019
Temperature: -8.0°C (18°F)
Dewpoint: -10.0°C (14°F) [RH = 85%]
Pressure (altimeter): 29.50 inches Hg (999.0 mb)
Winds: from the SSE (160 degrees) at 9 MPH (8 knots; 4.1 m/s)
Visibility: 6 or more miles (10+ km)
Ceiling: at least 12,000 feet AGL
Clouds: scattered clouds at 3900 feet AGL
Weather: -SN  (light snow)

METAR text: USSS 160500Z 16003MPS 9000 -SHSN BKN048CB M08/M10 Q1000 R26R/490337 NOSIG RMK QFE729/0972
Conditions at: USSS (EKATERINBURG , RU) observed 0500 UTC 16 February 2019
Temperature: -8.0°C (18°F)
Dewpoint: -10.0°C (14°F) [RH = 85%]
Pressure (altimeter): 29.53 inches Hg (1000.0 mb)
Winds: from the SSE (160 degrees) at 7 MPH (6 knots; 3.1 m/s)
Visibility: 6 miles ( 9 km)
Ceiling: 4800 feet AGL
Clouds: broken clouds at 4800 feet AGL
Weather: -SHSN  (light snow showers)

METAR text: USSS 160430Z 15002MPS 9999 -SHSN BKN043CB M08/M10 Q1000 R26R/490337 NOSIG RMK QFE729/0973
Conditions at: USSS (EKATERINBURG , RU) observed 0430 UTC 16 February 2019
Temperature: -8.0°C (18°F)
Dewpoint: -10.0°C (14°F) [RH = 85%]
Pressure (altimeter): 29.53 inches Hg (1000.0 mb)
Winds: from the SSE (150 degrees) at 5 MPH (4 knots; 2.1 m/s)
Visibility: 6 or more miles (10+ km)
Ceiling: 4300 feet AGL
Clouds: broken clouds at 4300 feet AGL
Weather: -SHSN  (light snow showers)

METAR text: USSS 160400Z 16002MPS 120V180 9000 -SHSN BKN043CB M08/M10 Q1000 R26R/490337 TEMPO 1400 SHSN RMK QFE730/0973
Conditions at: USSS (EKATERINBURG , RU) observed 0400 UTC 16 February 2019
Temperature: -8.0°C (18°F)
Dewpoint: -10.0°C (14°F) [RH = 85%]
Pressure (altimeter): 29.53 inches Hg (1000.0 mb)
Winds: from the SSE (160 degrees) at 5 MPH (4 knots; 2.1 m/s)
Visibility: 6 miles ( 9 km)
Ceiling: 4300 feet AGL
Clouds: broken clouds at 4300 feet AGL
Weather: -SHSN  (light snow showers)

METAR text: USSS 160330Z 16002MPS 7000 -SHSN BKN036CB M09/M10 Q1000 RESHSN R26R/490337 TEMPO 1400 SHSN RMK QFE730/0973
Conditions at: USSS (EKATERINBURG , RU) observed 0330 UTC 16 February 2019
Temperature: -9.0°C (16°F)
Dewpoint: -10.0°C (14°F) [RH = 92%]
Pressure (altimeter): 29.53 inches Hg (1000.0 mb)
Winds: from the SSE (160 degrees) at 5 MPH (4 knots; 2.1 m/s)
Visibility: 4 miles ( 7 km)
Ceiling: 3600 feet AGL
Clouds: broken clouds at 3600 feet AGL
Weather: -SHSN  (light snow showers)

METAR text: USSS 160300Z 15003MPS 3200 -SHSN BKN021CB M09/M10 Q1000 R26R/490337 TEMPO 1400 SHSN RMK QFE730/0973
Conditions at: USSS (EKATERINBURG , RU) observed 0300 UTC 16 February 2019
Temperature: -9.0°C (16°F)
Dewpoint: -10.0°C (14°F) [RH = 92%]
Pressure (altimeter): 29.53 inches Hg (1000.0 mb)
Winds: from the SSE (150 degrees) at 7 MPH (6 knots; 3.1 m/s)
Visibility: 1.99 miles (3.20 km)
Ceiling: 2100 feet AGL
Clouds: broken clouds at 2100 feet AGL
Weather: -SHSN  (light snow showers)

METAR text: USSS 160230Z 14002MPS 110V170 2500 -SHSN BKN042CB M09/M11 Q1001 R26R/420150 TEMPO 1400 SHSN RMK QFE730/0973
Conditions at: USSS (EKATERINBURG , RU) observed 0230 UTC 16 February 2019
Temperature: -9.0°C (16°F)
Dewpoint: -11.0°C (12°F) [RH = 85%]
Pressure (altimeter): 29.56 inches Hg (1001.0 mb)
Winds: from the SE (140 degrees) at 5 MPH (4 knots; 2.1 m/s)
Visibility: 1.55 miles (2.49 km)
Ceiling: 4200 feet AGL
Clouds: broken clouds at 4200 feet AGL
Weather: -SHSN  (light snow showers)

METAR text: USSS 160200Z 14002MPS 9999 SCT044 M09/M11 Q1001 R26R/420150 NOSIG RMK QFE730/0974
Conditions at: USSS (EKATERINBURG , RU) observed 0200 UTC 16 February 2019
Temperature: -9.0°C (16°F)
Dewpoint: -11.0°C (12°F) [RH = 85%]
Pressure (altimeter): 29.56 inches Hg (1001.0 mb)
Winds: from the SE (140 degrees) at 5 MPH (4 knots; 2.1 m/s)
Visibility: 6 or more miles (10+ km)
Ceiling: at least 12,000 feet AGL
Clouds: scattered clouds at 4400 feet AGL
Weather: no significant weather observed at this time

METAR text: USSS 160130Z 16002MPS 120V250 CAVOK M09/M11 Q1001 R26R/420150 NOSIG RMK QFE730/0974
Conditions at: USSS (EKATERINBURG , RU) observed 0130 UTC 16 February 2019
Temperature: -9.0°C (16°F)
Dewpoint: -11.0°C (12°F) [RH = 85%]
Pressure (altimeter): 29.56 inches Hg (1001.0 mb)
Winds: from the SSE (160 degrees) at 5 MPH (4 knots; 2.1 m/s)
Visibility: 6 or more miles (10+ km)
Ceiling: ceiling and visibility are OK
Clouds: unknown
Weather: no significant weather observed at this time

METAR text: USSS 160100Z 16003MPS CAVOK M09/M11 Q1002 R08L/420150 NOSIG RMK QFE731/0975
Conditions at: USSS (EKATERINBURG , RU) observed 0100 UTC 16 February 2019
Temperature: -9.0°C (16°F)
Dewpoint: -11.0°C (12°F) [RH = 85%]
Pressure (altimeter): 29.59 inches Hg (1002.0 mb)
Winds: from the SSE (160 degrees) at 7 MPH (6 knots; 3.1 m/s)
Visibility: 6 or more miles (10+ km)
Ceiling: ceiling and visibility are OK
Clouds: unknown
Weather: no significant weather observed at this time

METAR text: USSS 160030Z 16004MPS CAVOK M09/M11 Q1002 R08L/420150 NOSIG RMK QFE732/0976
Conditions at: USSS (EKATERINBURG , RU) observed 0030 UTC 16 February 2019
Temperature: -9.0°C (16°F)
Dewpoint: -11.0°C (12°F) [RH = 85%]
Pressure (altimeter): 29.59 inches Hg (1002.0 mb)
Winds: from the SSE (160 degrees) at 9 MPH (8 knots; 4.1 m/s)
Visibility: 6 or more miles (10+ km)
Ceiling: ceiling and visibility are OK
Clouds: unknown
Weather: no significant weather observed at this time

METAR text: USSS 160000Z 16003MPS CAVOK M09/M11 Q1002 R08L/420150 NOSIG RMK QFE732/0976
Conditions at: USSS (EKATERINBURG , RU) observed 0000 UTC 16 February 2019
Temperature: -9.0°C (16°F)
Dewpoint: -11.0°C (12°F) [RH = 85%]
Pressure (altimeter): 29.59 inches Hg (1002.0 mb)
Winds: from the SSE (160 degrees) at 7 MPH (6 knots; 3.1 m/s)
Visibility: 6 or more miles (10+ km)
Ceiling: ceiling and visibility are OK
Clouds: unknown
Weather: no significant weather observed at this time

METAR text: USSS 152330Z 16003MPS 9999 SCT033 M09/M11 Q1003 R08L/420150 NOSIG RMK QFE732/0977
Conditions at: USSS (EKATERINBURG , RU) observed 2330 UTC 15 February 2019
Temperature: -9.0°C (16°F)
Dewpoint: -11.0°C (12°F) [RH = 85%]
Pressure (altimeter): 29.62 inches Hg (1003.0 mb)
Winds: from the SSE (160 degrees) at 7 MPH (6 knots; 3.1 m/s)
Visibility: 6 or more miles (10+ km)
Ceiling: at least 12,000 feet AGL
Clouds: scattered clouds at 3300 feet AGL
Weather: no significant weather observed at this time

METAR text: USSS 152300Z 14003MPS 9999 SCT033 M09/M11 Q1003 R08L/420150 NOSIG RMK QFE733/0977
Conditions at: USSS (EKATERINBURG , RU) observed 2300 UTC 15 February 2019
Temperature: -9.0°C (16°F)
Dewpoint: -11.0°C (12°F) [RH = 85%]
Pressure (altimeter): 29.62 inches Hg (1003.0 mb)
Winds: from the SE (140 degrees) at 7 MPH (6 knots; 3.1 m/s)
Visibility: 6 or more miles (10+ km)
Ceiling: at least 12,000 feet AGL
Clouds: scattered clouds at 3300 feet AGL
Weather: no significant weather observed at this time

METAR text: USSS 152230Z 14003MPS 9999 SCT033 M10/M11 Q1004 R08L/450245 NOSIG RMK QFE733/0978
Conditions at: USSS (EKATERINBURG , RU) observed 2230 UTC 15 February 2019
Temperature: -10.0°C (14°F)
Dewpoint: -11.0°C (12°F) [RH = 92%]
Pressure (altimeter): 29.65 inches Hg (1004.0 mb)
Winds: from the SE (140 degrees) at 7 MPH (6 knots; 3.1 m/s)
Visibility: 6 or more miles (10+ km)
Ceiling: at least 12,000 feet AGL
Clouds: scattered clouds at 3300 feet AGL
Weather: no significant weather observed at this time

METAR text: USSS 152200Z 14003MPS 9999 SCT029CB M10/M11 Q1004 R08L/450245 NOSIG RMK QFE733/0978
Conditions at: USSS (EKATERINBURG , RU) observed 2200 UTC 15 February 2019
Temperature: -10.0°C (14°F)
Dewpoint: -11.0°C (12°F) [RH = 92%]
Pressure (altimeter): 29.65 inches Hg (1004.0 mb)
Winds: from the SE (140 degrees) at 7 MPH (6 knots; 3.1 m/s)
Visibility: 6 or more miles (10+ km)
Ceiling: at least 12,000 feet AGL
Clouds: scattered clouds at 2900 feet AGL
Weather: no significant weather observed at this time

METAR text: USSS 152130Z 15003MPS 9999 SCT020CB M09/M11 Q1005 R08L/450245 NOSIG RMK QFE734/0978
Conditions at: USSS (EKATERINBURG , RU) observed 2130 UTC 15 February 2019
Temperature: -9.0°C (16°F)
Dewpoint: -11.0°C (12°F) [RH = 85%]
Pressure (altimeter): 29.68 inches Hg (1005.0 mb)
Winds: from the SSE (150 degrees) at 7 MPH (6 knots; 3.1 m/s)
Visibility: 6 or more miles (10+ km)
Ceiling: at least 12,000 feet AGL
Clouds: scattered clouds at 2000 feet AGL
Weather: no significant weather observed at this time

METAR text: USSS 152100Z 14002MPS 9000 -SHSN SCT018CB M09/M11 Q1005 R08L/450245 NOSIG RMK QFE734/0979
Conditions at: USSS (EKATERINBURG , RU) observed 2100 UTC 15 February 2019
Temperature: -9.0°C (16°F)
Dewpoint: -11.0°C (12°F) [RH = 85%]
Pressure (altimeter): 29.68 inches Hg (1005.0 mb)
Winds: from the SE (140 degrees) at 5 MPH (4 knots; 2.1 m/s)
Visibility: 6 miles ( 9 km)
Ceiling: at least 12,000 feet AGL
Clouds: scattered clouds at 1800 feet AGL
Weather: -SHSN  (light snow showers)

METAR text: USSS 152030Z 18003MPS 9999 -SHSN BKN025CB M08/M10 Q1006 R26R/450245 NOSIG RMK QFE734/0978
Conditions at: USSS (EKATERINBURG , RU) observed 2030 UTC 15 February 2019
Temperature: -8.0°C (18°F)
Dewpoint: -10.0°C (14°F) [RH = 85%]
Pressure (altimeter): 29.70 inches Hg (1006.0 mb)
Winds: from the S (180 degrees) at 7 MPH (6 knots; 3.1 m/s)
Visibility: 6 or more miles (10+ km)
Ceiling: 2500 feet AGL
Clouds: broken clouds at 2500 feet AGL
Weather: -SHSN  (light snow showers)

METAR text: USSS 152000Z 18004MPS 9000 -SHSN BKN025CB M09/M10 Q1006 R26R/450245 NOSIG RMK QFE734/0979
Conditions at: USSS (EKATERINBURG , RU) observed 2000 UTC 15 February 2019
Temperature: -9.0°C (16°F)
Dewpoint: -10.0°C (14°F) [RH = 92%]
Pressure (altimeter): 29.70 inches Hg (1006.0 mb)
Winds: from the S (180 degrees) at 9 MPH (8 knots; 4.1 m/s)
Visibility: 6 miles ( 9 km)
Ceiling: 2500 feet AGL
Clouds: broken clouds at 2500 feet AGL
Weather: -SHSN  (light snow showers)

METAR text: USSS 151930Z 17004MPS 9999 -SHSN BKN025CB M09/M11 Q1006 R26R/420150 NOSIG RMK QFE734/0979
Conditions at: USSS (EKATERINBURG , RU) observed 1930 UTC 15 February 2019
Temperature: -9.0°C (16°F)
Dewpoint: -11.0°C (12°F) [RH = 85%]
Pressure (altimeter): 29.70 inches Hg (1006.0 mb)
Winds: from the S (170 degrees) at 9 MPH (8 knots; 4.1 m/s)
Visibility: 6 or more miles (10+ km)
Ceiling: 2500 feet AGL
Clouds: broken clouds at 2500 feet AGL
Weather: -SHSN  (light snow showers)

METAR text: USSS 151900Z 17003MPS 9999 -SHSN BKN027CB M10/M12 Q1006 R26R/420150 NOSIG RMK QFE734/0979
Conditions at: USSS (EKATERINBURG , RU) observed 1900 UTC 15 February 2019
Temperature: -10.0°C (14°F)
Dewpoint: -12.0°C (10°F) [RH = 85%]
Pressure (altimeter): 29.70 inches Hg (1006.0 mb)
Winds: from the S (170 degrees) at 7 MPH (6 knots; 3.1 m/s)
Visibility: 6 or more miles (10+ km)
Ceiling: 2700 feet AGL
Clouds: broken clouds at 2700 feet AGL
Weather: -SHSN  (light snow showers)

METAR text: USSS 151830Z 18003MPS 9999 BKN028 M11/M12 Q1007 R26R/420150 NOSIG RMK QFE734/0979
Conditions at: USSS (EKATERINBURG , RU) observed 1830 UTC 15 February 2019
Temperature: -11.0°C (12°F)
Dewpoint: -12.0°C (10°F) [RH = 92%]
Pressure (altimeter): 29.73 inches Hg (1007.0 mb)
Winds: from the S (180 degrees) at 7 MPH (6 knots; 3.1 m/s)
Visibility: 6 or more miles (10+ km)
Ceiling: 2800 feet AGL
Clouds: broken clouds at 2800 feet AGL
Weather: no significant weather observed at this time

METAR text: USSS 151800Z 17003MPS 9999 SCT025 M10/M12 Q1007 R26R/420150 NOSIG RMK QFE735/0980
Conditions at: USSS (EKATERINBURG , RU) observed 1800 UTC 15 February 2019
Temperature: -10.0°C (14°F)
Dewpoint: -12.0°C (10°F) [RH = 85%]
Pressure (altimeter): 29.73 inches Hg (1007.0 mb)
Winds: from the S (170 degrees) at 7 MPH (6 knots; 3.1 m/s)
Visibility: 6 or more miles (10+ km)
Ceiling: at least 12,000 feet AGL
Clouds: scattered clouds at 2500 feet AGL
Weather: no significant weather observed at this time

METAR text: USSS 151730Z 18003MPS 9999 -SN SCT025 M11/M13 Q1007 R26R/420150 NOSIG RMK QFE735/0980
Conditions at: USSS (EKATERINBURG , RU) observed 1730 UTC 15 February 2019
Temperature: -11.0°C (12°F)
Dewpoint: -13.0°C ( 9°F) [RH = 85%]
Pressure (altimeter): 29.73 inches Hg (1007.0 mb)
Winds: from the S (180 degrees) at 7 MPH (6 knots; 3.1 m/s)
Visibility: 6 or more miles (10+ km)
Ceiling: at least 12,000 feet AGL
Clouds: scattered clouds at 2500 feet AGL
Weather: -SN  (light snow)

METAR text: USSS 151700Z 17004MPS 9999 -SN SCT020 M09/M12 Q1007 R26R/420150 NOSIG RMK QFE735/0980
Conditions at: USSS (EKATERINBURG , RU) observed 1700 UTC 15 February 2019
Temperature: -9.0°C (16°F)
Dewpoint: -12.0°C (10°F) [RH = 79%]
Pressure (altimeter): 29.73 inches Hg (1007.0 mb)
Winds: from the S (170 degrees) at 9 MPH (8 knots; 4.1 m/s)
Visibility: 6 or more miles (10+ km)
Ceiling: at least 12,000 feet AGL
Clouds: scattered clouds at 2000 feet AGL
Weather: -SN  (light snow)

METAR text: USSS 151630Z 17003MPS 9999 -SN SCT027 M09/M11 Q1008 R26R/420150 NOSIG RMK QFE735/0980
Conditions at: USSS (EKATERINBURG , RU) observed 1630 UTC 15 February 2019
Temperature: -9.0°C (16°F)
Dewpoint: -11.0°C (12°F) [RH = 85%]
Pressure (altimeter): 29.76 inches Hg (1008.0 mb)
Winds: from the S (170 degrees) at 7 MPH (6 knots; 3.1 m/s)
Visibility: 6 or more miles (10+ km)
Ceiling: at least 12,000 feet AGL
Clouds: scattered clouds at 2700 feet AGL
Weather: -SN  (light snow)

METAR text: USSS 151600Z 18003MPS 9999 SCT028 M10/M12 Q1008 R26R/420150 NOSIG RMK QFE735/0981
Conditions at: USSS (EKATERINBURG , RU) observed 1600 UTC 15 February 2019
Temperature: -10.0°C (14°F)
Dewpoint: -12.0°C (10°F) [RH = 85%]
Pressure (altimeter): 29.76 inches Hg (1008.0 mb)
Winds: from the S (180 degrees) at 7 MPH (6 knots; 3.1 m/s)
Visibility: 6 or more miles (10+ km)
Ceiling: at least 12,000 feet AGL
Clouds: scattered clouds at 2800 feet AGL
Weather: no significant weather observed at this time

METAR text: USSS 151530Z 17003MPS 9999 FEW032 M10/M12 Q1008 R26R/420150 NOSIG RMK QFE736/0981
Conditions at: USSS (EKATERINBURG , RU) observed 1530 UTC 15 February 2019
Temperature: -10.0°C (14°F)
Dewpoint: -12.0°C (10°F) [RH = 85%]
Pressure (altimeter): 29.76 inches Hg (1008.0 mb)
Winds: from the S (170 degrees) at 7 MPH (6 knots; 3.1 m/s)
Visibility: 6 or more miles (10+ km)
Ceiling: at least 12,000 feet AGL
Clouds: few clouds at 3200 feet AGL
Weather: no significant weather observed at this time

METAR text: USSS 151500Z 20003MPS CAVOK M09/M12 Q1009 R26R/420150 NOSIG RMK QFE736/0981
Conditions at: USSS (EKATERINBURG , RU) observed 1500 UTC 15 February 2019
Temperature: -9.0°C (16°F)
Dewpoint: -12.0°C (10°F) [RH = 79%]
Pressure (altimeter): 29.79 inches Hg (1009.0 mb)
Winds: from the SSW (200 degrees) at 7 MPH (6 knots; 3.1 m/s)
Visibility: 6 or more miles (10+ km)
Ceiling: ceiling and visibility are OK
Clouds: unknown
Weather: no significant weather observed at this time

METAR text: USSS 151430Z 18002MPS 9999 FEW030 M09/M12 Q1009 R26R/420150 NOSIG RMK QFE736/0981
Conditions at: USSS (EKATERINBURG , RU) observed 1430 UTC 15 February 2019
Temperature: -9.0°C (16°F)
Dewpoint: -12.0°C (10°F) [RH = 79%]
Pressure (altimeter): 29.79 inches Hg (1009.0 mb)
Winds: from the S (180 degrees) at 5 MPH (4 knots; 2.1 m/s)
Visibility: 6 or more miles (10+ km)
Ceiling: at least 12,000 feet AGL
Clouds: few clouds at 3000 feet AGL
Weather: no significant weather observed at this time

METAR text: USSS 151400Z 22003MPS 9999 SCT030 M09/M13 Q1009 R26R/420150 NOSIG RMK QFE736/0982
Conditions at: USSS (EKATERINBURG , RU) observed 1400 UTC 15 February 2019
Temperature: -9.0°C (16°F)
Dewpoint: -13.0°C ( 9°F) [RH = 73%]
Pressure (altimeter): 29.79 inches Hg (1009.0 mb)
Winds: from the SW (220 degrees) at 7 MPH (6 knots; 3.1 m/s)
Visibility: 6 or more miles (10+ km)
Ceiling: at least 12,000 feet AGL
Clouds: scattered clouds at 3000 feet AGL
Weather: no significant weather observed at this time

METAR text: USSS 151330Z 24004MPS 9999 SCT030CB M08/M12 Q1009 R26R/420150 NOSIG RMK QFE736/0982
Conditions at: USSS (EKATERINBURG , RU) observed 1330 UTC 15 February 2019
Temperature: -8.0°C (18°F)
Dewpoint: -12.0°C (10°F) [RH = 73%]
Pressure (altimeter): 29.79 inches Hg (1009.0 mb)
Winds: from the WSW (240 degrees) at 9 MPH (8 knots; 4.1 m/s)
Visibility: 6 or more miles (10+ km)
Ceiling: at least 12,000 feet AGL
Clouds: scattered clouds at 3000 feet AGL
Weather: no significant weather observed at this time

METAR text: USSS 151300Z 24005MPS 9999 -SHSN BKN027CB M07/M11 Q1009 R26R/420150 NOSIG RMK QFE736/0982
Conditions at: USSS (EKATERINBURG , RU) observed 1300 UTC 15 February 2019
Temperature: -7.0°C (19°F)
Dewpoint: -11.0°C (12°F) [RH = 73%]
Pressure (altimeter): 29.79 inches Hg (1009.0 mb)
Winds: from the WSW (240 degrees) at 12 MPH (10 knots; 5.1 m/s)
Visibility: 6 or more miles (10+ km)
Ceiling: 2700 feet AGL
Clouds: broken clouds at 2700 feet AGL
Weather: -SHSN  (light snow showers)

METAR text: USSS 151230Z 25006MPS 9999 -SHSN DRSN BKN026CB M06/M11 Q1009 R26R/420150 NOSIG RMK QFE736/0982
Conditions at: USSS (EKATERINBURG , RU) observed 1230 UTC 15 February 2019
Temperature: -6.0°C (21°F)
Dewpoint: -11.0°C (12°F) [RH = 68%]
Pressure (altimeter): 29.79 inches Hg (1009.0 mb)
Winds: from the WSW (250 degrees) at 14 MPH (12 knots; 6.2 m/s)
Visibility: 6 or more miles (10+ km)
Ceiling: 2600 feet AGL
Clouds: broken clouds at 2600 feet AGL
Weather: -SHSN DRSN  (light snow showers, low drifting snow)

METAR text: USSS 151200Z 27006MPS 240V310 9999 -SHSN BKN034CB M06/M11 Q1009 R26R/420150 NOSIG RMK QFE736/0982
Conditions at: USSS (EKATERINBURG , RU) observed 1200 UTC 15 February 2019
Temperature: -6.0°C (21°F)
Dewpoint: -11.0°C (12°F) [RH = 68%]
Pressure (altimeter): 29.79 inches Hg (1009.0 mb)
Winds: from the W (270 degrees) at 14 MPH (12 knots; 6.2 m/s)
Visibility: 6 or more miles (10+ km)
Ceiling: 3400 feet AGL
Clouds: broken clouds at 3400 feet AGL
Weather: -SHSN  (light snow showers)

METAR text: USSS 151130Z 29006MPS 9999 -SHSN BKN030CB M06/M10 Q1010 R26R/420150 NOSIG RMK QFE737/0982
Conditions at: USSS (EKATERINBURG , RU) observed 1130 UTC 15 February 2019
Temperature: -6.0°C (21°F)
Dewpoint: -10.0°C (14°F) [RH = 73%]
Pressure (altimeter): 29.82 inches Hg (1010.0 mb)
Winds: from the WNW (290 degrees) at 14 MPH (12 knots; 6.2 m/s)
Visibility: 6 or more miles (10+ km)
Ceiling: 3000 feet AGL
Clouds: broken clouds at 3000 feet AGL
Weather: -SHSN  (light snow showers)

METAR text: USSS 151100Z 28009MPS 9999 -SHSN DRSN BKN036CB M05/M10 Q1010 R26R/420150 NOSIG RMK QFE737/0982
Conditions at: USSS (EKATERINBURG , RU) observed 1100 UTC 15 February 2019
Temperature: -5.0°C (23°F)
Dewpoint: -10.0°C (14°F) [RH = 68%]
Pressure (altimeter): 29.82 inches Hg (1010.0 mb)
Winds: from the W (280 degrees) at 20 MPH (17 knots; 8.7 m/s)
Visibility: 6 or more miles (10+ km)
Ceiling: 3600 feet AGL
Clouds: broken clouds at 3600 feet AGL
Weather: -SHSN DRSN  (light snow showers, low drifting snow)

METAR text: USSS 151030Z 28006G12MPS 9000 -SHSN DRSN BKN031CB M05/M10 Q1010 R26R/420150 TEMPO 2100 -SHSN RMK QFE737/0983
Conditions at: USSS (EKATERINBURG , RU) observed 1030 UTC 15 February 2019
Temperature: -5.0°C (23°F)
Dewpoint: -10.0°C (14°F) [RH = 68%]
Pressure (altimeter): 29.82 inches Hg (1010.0 mb)
Winds: from the W (280 degrees) at 14 MPH (12 knots; 6.2 m/s)
gusting to 26 MPH (23 knots; 11.8 m/s)
Visibility: 6 miles ( 9 km)
Ceiling: 3100 feet AGL
Clouds: broken clouds at 3100 feet AGL
Weather: -SHSN DRSN  (light snow showers, low drifting snow)

Forecast for: USSS (EKATERINBURG , RU)
Text: TAF USSS 161950Z 1621/1721 19003G08MPS 3100 -SHSN BR BKN011 SCT020CB
Forecast period: 2100 UTC 16 February 2019 to 0300 UTC 17 February 2019
Forecast type: FROM: standard forecast or significant change
Winds: from the S (190 degrees) at 7 MPH (6 knots; 3.1 m/s)
gusting to 18 MPH (16 knots; 8.2 m/s)
Visibility: 1.93 miles (3.11 km)
Ceiling: 1100 feet AGL
Clouds: broken clouds at 1100 feet AGL
scattered clouds at 2000 feet AGL
Weather: -SHSN BR  (light snow showers, mist)
Text: BECMG 1703/1705 25003G10MPS 5000 -SHSN
Forecast period: 0300 to 2100 UTC 17 February 2019
Forecast type: BECOMING: Conditions expected to become as follows by 0500 UTC 17 February 2019
Winds: from the WSW (250 degrees) at 7 MPH (6 knots; 3.1 m/s)
gusting to 22 MPH (19 knots; 9.8 m/s)
Visibility: 3 miles (5 km)
Ceiling: 1100 feet AGL
Clouds: broken clouds at 1100 feet AGL
scattered clouds at 2000 feet AGL
Weather: -SHSN  (light snow showers)